METAR Data
IDs: Format: Raw Decoded Include TAF

Data at: 0024 UTC 01 Mar 2021

ENFL 282350Z AUTO 18014KT 9999NDV FEW008/// BKN019/// OVC033/// 06/04 Q1032